sensor_id;sensor_type;location;lat;lon;timestamp;temperature;humidity
14893;DHT22;7538;53.626;9.906;2023-03-16T00:00:40;1.00;99.90
14893;DHT22;7538;53.626;9.906;2023-03-16T00:03:10;0.90;99.90
14893;DHT22;7538;53.626;9.906;2023-03-16T00:05:43;0.90;99.90
14893;DHT22;7538;53.626;9.906;2023-03-16T00:08:11;0.90;99.90
14893;DHT22;7538;53.626;9.906;2023-03-16T00:10:37;0.90;99.90
14893;DHT22;7538;53.626;9.906;2023-03-16T00:13:04;0.90;99.90
14893;DHT22;7538;53.626;9.906;2023-03-16T00:15:31;0.80;99.90
14893;DHT22;7538;53.626;9.906;2023-03-16T00:17:59;0.80;99.90
14893;DHT22;7538;53.626;9.906;2023-03-16T00:20:28;0.80;99.90
14893;DHT22;7538;53.626;9.906;2023-03-16T00:22:54;0.70;99.90
14893;DHT22;7538;53.626;9.906;2023-03-16T00:25:21;0.70;99.90
14893;DHT22;7538;53.626;9.906;2023-03-16T00:27:48;0.70;99.90
14893;DHT22;7538;53.626;9.906;2023-03-16T00:30:16;0.70;99.90
14893;DHT22;7538;53.626;9.906;2023-03-16T00:32:42;0.70;99.90
14893;DHT22;7538;53.626;9.906;2023-03-16T00:35:09;0.70;99.90
14893;DHT22;7538;53.626;9.906;2023-03-16T00:37:37;0.60;99.90
14893;DHT22;7538;53.626;9.906;2023-03-16T00:40:08;4.00;99.90
14893;DHT22;7538;53.626;9.906;2023-03-16T00:42:35;0.60;99.90
14893;DHT22;7538;53.626;9.906;2023-03-16T00:45:03;0.60;99.90
14893;DHT22;7538;53.626;9.906;2023-03-16T00:47:31;0.60;99.90
14893;DHT22;7538;53.626;9.906;2023-03-16T00:49:59;0.60;99.90
14893;DHT22;7538;53.626;9.906;2023-03-16T00:52:28;0.60;99.90
14893;DHT22;7538;53.626;9.906;2023-03-16T00:54:57;0.50;99.90
14893;DHT22;7538;53.626;9.906;2023-03-16T00:57:24;0.50;99.90
14893;DHT22;7538;53.626;9.906;2023-03-16T00:59:52;0.50;99.90
14893;DHT22;7538;53.626;9.906;2023-03-16T01:02:19;0.50;99.90
14893;DHT22;7538;53.626;9.906;2023-03-16T01:04:48;0.50;99.90
14893;DHT22;7538;53.626;9.906;2023-03-16T01:07:15;0.40;99.90
14893;DHT22;7538;53.626;9.906;2023-03-16T01:09:42;0.40;99.90
14893;DHT22;7538;53.626;9.906;2023-03-16T01:12:12;0.40;99.90
14893;DHT22;7538;53.626;9.906;2023-03-16T01:14:40;0.40;99.90
14893;DHT22;7538;53.626;9.906;2023-03-16T01:17:08;0.40;99.90
14893;DHT22;7538;53.626;9.906;2023-03-16T01:19:36;0.40;99.90
14893;DHT22;7538;53.626;9.906;2023-03-16T01:22:03;0.40;99.90
14893;DHT22;7538;53.626;9.906;2023-03-16T01:24:30;0.40;99.90
14893;DHT22;7538;53.626;9.906;2023-03-16T01:26:57;0.30;99.90
14893;DHT22;7538;53.626;9.906;2023-03-16T01:29:25;0.40;99.90
14893;DHT22;7538;53.626;9.906;2023-03-16T01:31:52;0.30;99.90
14893;DHT22;7538;53.626;9.906;2023-03-16T01:34:20;0.30;99.90
14893;DHT22;7538;53.626;9.906;2023-03-16T01:36:48;0.30;99.90
14893;DHT22;7538;53.626;9.906;2023-03-16T01:39:16;0.30;99.90
14893;DHT22;7538;53.626;9.906;2023-03-16T01:41:44;0.30;99.90
14893;DHT22;7538;53.626;9.906;2023-03-16T01:44:12;0.30;99.90
14893;DHT22;7538;53.626;9.906;2023-03-16T01:46:41;0.20;99.90
14893;DHT22;7538;53.626;9.906;2023-03-16T01:49:11;0.20;99.90
14893;DHT22;7538;53.626;9.906;2023-03-16T01:51:41;0.30;99.90
14893;DHT22;7538;53.626;9.906;2023-03-16T01:54:14;0.20;99.90
14893;DHT22;7538;53.626;9.906;2023-03-16T01:56:47;0.20;99.90
14893;DHT22;7538;53.626;9.906;2023-03-16T01:59:18;0.20;99.90
14893;DHT22;7538;53.626;9.906;2023-03-16T02:01:48;0.20;99.90
14893;DHT22;7538;53.626;9.906;2023-03-16T02:04:24;0.20;99.90
14893;DHT22;7538;53.626;9.906;2023-03-16T02:06:54;0.20;99.90
14893;DHT22;7538;53.626;9.906;2023-03-16T02:09:23;0.20;99.90
14893;DHT22;7538;53.626;9.906;2023-03-16T02:11:51;0.10;99.90
14893;DHT22;7538;53.626;9.906;2023-03-16T02:14:19;0.10;99.90
14893;DHT22;7538;53.626;9.906;2023-03-16T02:16:47;0.10;99.90
14893;DHT22;7538;53.626;9.906;2023-03-16T02:19:21;0.10;99.90
14893;DHT22;7538;53.626;9.906;2023-03-16T02:21:54;0.10;99.90
14893;DHT22;7538;53.626;9.906;2023-03-16T02:24:26;0.10;99.90
14893;DHT22;7538;53.626;9.906;2023-03-16T02:26:56;0.10;99.90
14893;DHT22;7538;53.626;9.906;2023-03-16T02:29:39;0.10;99.90
14893;DHT22;7538;53.626;9.906;2023-03-16T02:32:07;0.10;99.90
14893;DHT22;7538;53.626;9.906;2023-03-16T02:34:36;0.20;99.90
14893;DHT22;7538;53.626;9.906;2023-03-16T02:37:04;0.20;99.90
14893;DHT22;7538;53.626;9.906;2023-03-16T02:39:31;0.20;99.90
14893;DHT22;7538;53.626;9.906;2023-03-16T02:41:59;0.20;99.90
14893;DHT22;7538;53.626;9.906;2023-03-16T02:44:29;0.20;99.90
14893;DHT22;7538;53.626;9.906;2023-03-16T02:47:02;0.30;99.90
14893;DHT22;7538;53.626;9.906;2023-03-16T02:49:34;0.30;99.90
14893;DHT22;7538;53.626;9.906;2023-03-16T02:52:01;0.40;99.90
14893;DHT22;7538;53.626;9.906;2023-03-16T02:54:28;0.40;99.90
14893;DHT22;7538;53.626;9.906;2023-03-16T02:56:55;0.40;99.90
14893;DHT22;7538;53.626;9.906;2023-03-16T02:59:22;0.50;99.90
14893;DHT22;7538;53.626;9.906;2023-03-16T03:01:49;0.50;99.90
14893;DHT22;7538;53.626;9.906;2023-03-16T03:04:17;0.50;99.90
14893;DHT22;7538;53.626;9.906;2023-03-16T03:06:44;0.50;99.90
14893;DHT22;7538;53.626;9.906;2023-03-16T03:09:11;0.50;99.90
14893;DHT22;7538;53.626;9.906;2023-03-16T03:11:39;0.50;99.90
14893;DHT22;7538;53.626;9.906;2023-03-16T03:14:06;0.50;99.90
14893;DHT22;7538;53.626;9.906;2023-03-16T03:16:33;0.50;99.90
14893;DHT22;7538;53.626;9.906;2023-03-16T03:18:59;0.50;99.90
14893;DHT22;7538;53.626;9.906;2023-03-16T03:21:28;0.50;99.90
14893;DHT22;7538;53.626;9.906;2023-03-16T03:23:55;0.50;99.90
14893;DHT22;7538;53.626;9.906;2023-03-16T03:26:22;0.50;99.90
14893;DHT22;7538;53.626;9.906;2023-03-16T03:28:49;0.50;99.90
14893;DHT22;7538;53.626;9.906;2023-03-16T03:31:18;0.50;99.90
14893;DHT22;7538;53.626;9.906;2023-03-16T03:33:45;0.50;99.90
14893;DHT22;7538;53.626;9.906;2023-03-16T03:36:12;0.50;99.90
14893;DHT22;7538;53.626;9.906;2023-03-16T03:38:40;0.50;99.90
14893;DHT22;7538;53.626;9.906;2023-03-16T03:41:08;0.60;99.90
14893;DHT22;7538;53.626;9.906;2023-03-16T03:43:34;0.60;99.90
14893;DHT22;7538;53.626;9.906;2023-03-16T03:46:02;0.60;99.90
14893;DHT22;7538;53.626;9.906;2023-03-16T03:48:29;0.60;99.90
14893;DHT22;7538;53.626;9.906;2023-03-16T03:50:56;0.60;99.90
14893;DHT22;7538;53.626;9.906;2023-03-16T03:53:23;0.60;99.90
14893;DHT22;7538;53.626;9.906;2023-03-16T03:55:51;0.60;99.90
14893;DHT22;7538;53.626;9.906;2023-03-16T03:58:18;0.60;99.90
14893;DHT22;7538;53.626;9.906;2023-03-16T04:00:45;0.70;99.90
14893;DHT22;7538;53.626;9.906;2023-03-16T04:03:12;0.70;99.90
14893;DHT22;7538;53.626;9.906;2023-03-16T04:05:39;0.70;99.90
14893;DHT22;7538;53.626;9.906;2023-03-16T04:08:06;0.80;99.90
14893;DHT22;7538;53.626;9.906;2023-03-16T04:10:33;0.70;99.90
14893;DHT22;7538;53.626;9.906;2023-03-16T04:13:01;0.80;99.90
14893;DHT22;7538;53.626;9.906;2023-03-16T04:15:27;0.80;99.90
14893;DHT22;7538;53.626;9.906;2023-03-16T04:17:57;0.70;99.90
14893;DHT22;7538;53.626;9.906;2023-03-16T04:20:24;0.80;99.90
14893;DHT22;7538;53.626;9.906;2023-03-16T04:22:51;0.80;99.90
14893;DHT22;7538;53.626;9.906;2023-03-16T04:25:24;0.80;99.90
14893;DHT22;7538;53.626;9.906;2023-03-16T04:27:52;0.80;99.90
14893;DHT22;7538;53.626;9.906;2023-03-16T04:30:20;0.80;99.90
14893;DHT22;7538;53.626;9.906;2023-03-16T04:32:48;0.80;99.90
14893;DHT22;7538;53.626;9.906;2023-03-16T04:35:15;0.80;99.90
14893;DHT22;7538;53.626;9.906;2023-03-16T04:37:42;0.90;99.90
14893;DHT22;7538;53.626;9.906;2023-03-16T04:40:10;0.80;99.90
14893;DHT22;7538;53.626;9.906;2023-03-16T04:42:44;2.40;99.90
14893;DHT22;7538;53.626;9.906;2023-03-16T04:45:13;0.70;99.90
14893;DHT22;7538;53.626;9.906;2023-03-16T04:47:41;0.80;99.90
14893;DHT22;7538;53.626;9.906;2023-03-16T04:50:09;0.80;99.90
14893;DHT22;7538;53.626;9.906;2023-03-16T04:52:36;0.70;99.90
14893;DHT22;7538;53.626;9.906;2023-03-16T04:55:04;0.70;99.90
14893;DHT22;7538;53.626;9.906;2023-03-16T04:57:31;0.80;99.90
14893;DHT22;7538;53.626;9.906;2023-03-16T04:59:57;0.80;99.90
14893;DHT22;7538;53.626;9.906;2023-03-16T05:02:24;0.80;99.90
14893;DHT22;7538;53.626;9.906;2023-03-16T05:04:52;0.90;99.90
14893;DHT22;7538;53.626;9.906;2023-03-16T05:07:19;3.90;99.90
14893;DHT22;7538;53.626;9.906;2023-03-16T05:09:46;0.90;99.90
14893;DHT22;7538;53.626;9.906;2023-03-16T05:12:13;1.00;99.90
14893;DHT22;7538;53.626;9.906;2023-03-16T05:14:40;1.00;99.90
14893;DHT22;7538;53.626;9.906;2023-03-16T05:17:06;1.00;99.90
14893;DHT22;7538;53.626;9.906;2023-03-16T05:19:33;1.10;99.90
14893;DHT22;7538;53.626;9.906;2023-03-16T05:22:02;1.00;99.90
14893;DHT22;7538;53.626;9.906;2023-03-16T05:24:28;1.10;99.90
14893;DHT22;7538;53.626;9.906;2023-03-16T05:26:55;1.00;99.90
14893;DHT22;7538;53.626;9.906;2023-03-16T05:29:22;1.00;99.90
14893;DHT22;7538;53.626;9.906;2023-03-16T05:31:50;1.00;99.90
14893;DHT22;7538;53.626;9.906;2023-03-16T05:34:17;0.90;99.90
14893;DHT22;7538;53.626;9.906;2023-03-16T05:36:44;1.00;99.90
14893;DHT22;7538;53.626;9.906;2023-03-16T05:39:12;1.00;99.90
14893;DHT22;7538;53.626;9.906;2023-03-16T05:41:39;1.10;99.90
14893;DHT22;7538;53.626;9.906;2023-03-16T05:44:06;1.10;99.90
14893;DHT22;7538;53.626;9.906;2023-03-16T05:46:33;1.20;99.90
14893;DHT22;7538;53.626;9.906;2023-03-16T05:48:59;1.20;99.90
14893;DHT22;7538;53.626;9.906;2023-03-16T05:51:26;1.30;99.90
14893;DHT22;7538;53.626;9.906;2023-03-16T05:53:54;1.40;99.90
14893;DHT22;7538;53.626;9.906;2023-03-16T05:56:23;1.50;99.90
14893;DHT22;7538;53.626;9.906;2023-03-16T05:58:50;1.50;99.90
14893;DHT22;7538;53.626;9.906;2023-03-16T06:01:17;1.60;99.90
14893;DHT22;7538;53.626;9.906;2023-03-16T06:03:44;1.70;99.90
14893;DHT22;7538;53.626;9.906;2023-03-16T06:06:11;1.70;99.90
14893;DHT22;7538;53.626;9.906;2023-03-16T06:08:38;1.70;99.90
14893;DHT22;7538;53.626;9.906;2023-03-16T06:11:05;1.70;99.90
14893;DHT22;7538;53.626;9.906;2023-03-16T06:13:33;1.80;99.90
14893;DHT22;7538;53.626;9.906;2023-03-16T06:16:00;1.80;99.90
14893;DHT22;7538;53.626;9.906;2023-03-16T06:18:27;1.90;99.90
14893;DHT22;7538;53.626;9.906;2023-03-16T06:20:54;1.90;99.90
14893;DHT22;7538;53.626;9.906;2023-03-16T06:23:20;1.90;99.90
14893;DHT22;7538;53.626;9.906;2023-03-16T06:25:47;2.00;99.90
14893;DHT22;7538;53.626;9.906;2023-03-16T06:28:14;2.10;99.90
14893;DHT22;7538;53.626;9.906;2023-03-16T06:30:42;2.20;99.90
14893;DHT22;7538;53.626;9.906;2023-03-16T06:33:09;2.30;99.90
14893;DHT22;7538;53.626;9.906;2023-03-16T06:35:36;2.40;99.90
14893;DHT22;7538;53.626;9.906;2023-03-16T06:38:03;5.90;99.90
14893;DHT22;7538;53.626;9.906;2023-03-16T06:40:30;2.70;99.90
14893;DHT22;7538;53.626;9.906;2023-03-16T06:42:56;5.90;99.90
14893;DHT22;7538;53.626;9.906;2023-03-16T06:45:23;2.80;99.90
14893;DHT22;7538;53.626;9.906;2023-03-16T06:47:51;2.80;99.90
14893;DHT22;7538;53.626;9.906;2023-03-16T06:50:18;2.80;99.90
14893;DHT22;7538;53.626;9.906;2023-03-16T06:52:45;2.80;99.90
14893;DHT22;7538;53.626;9.906;2023-03-16T06:55:12;2.80;99.90
14893;DHT22;7538;53.626;9.906;2023-03-16T06:57:39;2.80;99.90
14893;DHT22;7538;53.626;9.906;2023-03-16T07:00:07;2.90;99.90
14893;DHT22;7538;53.626;9.906;2023-03-16T07:02:34;3.00;99.90
14893;DHT22;7538;53.626;9.906;2023-03-16T07:05:06;3.00;99.90
14893;DHT22;7538;53.626;9.906;2023-03-16T07:07:33;3.00;99.90
14893;DHT22;7538;53.626;9.906;2023-03-16T07:09:59;3.20;99.90
14893;DHT22;7538;53.626;9.906;2023-03-16T07:12:26;3.30;99.90
14893;DHT22;7538;53.626;9.906;2023-03-16T07:14:53;3.50;99.90
14893;DHT22;7538;53.626;9.906;2023-03-16T07:17:20;3.70;99.90
14893;DHT22;7538;53.626;9.906;2023-03-16T07:19:46;4.00;99.90
14893;DHT22;7538;53.626;9.906;2023-03-16T07:22:14;4.30;99.90
14893;DHT22;7538;53.626;9.906;2023-03-16T07:24:41;4.60;99.90
14893;DHT22;7538;53.626;9.906;2023-03-16T07:27:08;4.80;99.90
14893;DHT22;7538;53.626;9.906;2023-03-16T07:29:35;5.00;99.90
14893;DHT22;7538;53.626;9.906;2023-03-16T07:32:02;5.20;99.90
14893;DHT22;7538;53.626;9.906;2023-03-16T07:34:29;5.40;99.90
14893;DHT22;7538;53.626;9.906;2023-03-16T07:36:56;5.60;99.90
14893;DHT22;7538;53.626;9.906;2023-03-16T07:39:24;5.80;99.90
14893;DHT22;7538;53.626;9.906;2023-03-16T07:41:51;6.00;99.90
14893;DHT22;7538;53.626;9.906;2023-03-16T07:44:17;6.10;99.80
14893;DHT22;7538;53.626;9.906;2023-03-16T07:46:44;6.20;98.50
14893;DHT22;7538;53.626;9.906;2023-03-16T07:49:11;6.50;97.80
14893;DHT22;7538;53.626;9.906;2023-03-16T07:51:38;6.90;97.00
14893;DHT22;7538;53.626;9.906;2023-03-16T07:54:05;7.60;95.20
14893;DHT22;7538;53.626;9.906;2023-03-16T07:56:33;7.40;94.10
14893;DHT22;7538;53.626;9.906;2023-03-16T07:59:01;9.10;92.60
14893;DHT22;7538;53.626;9.906;2023-03-16T08:01:28;9.70;90.50
14893;DHT22;7538;53.626;9.906;2023-03-16T08:03:54;10.50;90.20
14893;DHT22;7538;53.626;9.906;2023-03-16T08:06:21;11.60;85.50
14893;DHT22;7538;53.626;9.906;2023-03-16T08:08:50;12.60;81.30
14893;DHT22;7538;53.626;9.906;2023-03-16T08:11:17;13.40;76.80
14893;DHT22;7538;53.626;9.906;2023-03-16T08:13:50;13.90;74.40
14893;DHT22;7538;53.626;9.906;2023-03-16T08:16:19;14.00;70.50
14893;DHT22;7538;53.626;9.906;2023-03-16T08:18:46;13.80;69.70
14893;DHT22;7538;53.626;9.906;2023-03-16T08:21:13;13.80;69.30
14893;DHT22;7538;53.626;9.906;2023-03-16T08:23:41;13.50;69.10
14893;DHT22;7538;53.626;9.906;2023-03-16T08:26:14;13.20;69.50
14893;DHT22;7538;53.626;9.906;2023-03-16T08:28:41;13.20;68.30
14893;DHT22;7538;53.626;9.906;2023-03-16T08:31:11;13.40;69.00
14893;DHT22;7538;53.626;9.906;2023-03-16T08:33:39;13.50;67.30
14893;DHT22;7538;53.626;9.906;2023-03-16T08:36:07;13.60;66.90
14893;DHT22;7538;53.626;9.906;2023-03-16T08:38:34;11.60;65.50
14893;DHT22;7538;53.626;9.906;2023-03-16T08:41:00;14.50;65.80
14893;DHT22;7538;53.626;9.906;2023-03-16T08:43:27;13.40;62.50
14893;DHT22;7538;53.626;9.906;2023-03-16T08:45:54;15.10;62.20
14893;DHT22;7538;53.626;9.906;2023-03-16T08:48:22;15.00;62.10
14893;DHT22;7538;53.626;9.906;2023-03-16T08:50:49;15.10;60.80
14893;DHT22;7538;53.626;9.906;2023-03-16T08:53:16;15.20;62.00
14893;DHT22;7538;53.626;9.906;2023-03-16T08:55:43;15.40;60.00
14893;DHT22;7538;53.626;9.906;2023-03-16T08:58:11;15.70;59.60
14893;DHT22;7538;53.626;9.906;2023-03-16T09:00:38;15.60;58.60
14893;DHT22;7538;53.626;9.906;2023-03-16T09:03:06;15.60;58.50
14893;DHT22;7538;53.626;9.906;2023-03-16T09:05:36;15.40;59.60
14893;DHT22;7538;53.626;9.906;2023-03-16T09:08:03;15.60;59.10
14893;DHT22;7538;53.626;9.906;2023-03-16T09:10:30;15.80;57.70
14893;DHT22;7538;53.626;9.906;2023-03-16T09:12:57;15.90;57.00
14893;DHT22;7538;53.626;9.906;2023-03-16T09:15:24;15.60;57.50
14893;DHT22;7538;53.626;9.906;2023-03-16T09:17:51;15.60;58.10
14893;DHT22;7538;53.626;9.906;2023-03-16T09:20:18;15.50;57.50
14893;DHT22;7538;53.626;9.906;2023-03-16T09:22:47;15.30;57.40
14893;DHT22;7538;53.626;9.906;2023-03-16T09:25:13;15.00;57.70
14893;DHT22;7538;53.626;9.906;2023-03-16T09:27:40;15.10;58.80
14893;DHT22;7538;53.626;9.906;2023-03-16T09:30:08;15.10;58.20
14893;DHT22;7538;53.626;9.906;2023-03-16T09:32:35;15.00;58.30
14893;DHT22;7538;53.626;9.906;2023-03-16T09:35:03;14.90;58.60
14893;DHT22;7538;53.626;9.906;2023-03-16T09:37:30;15.20;59.60
14893;DHT22;7538;53.626;9.906;2023-03-16T09:39:59;15.50;58.70
14893;DHT22;7538;53.626;9.906;2023-03-16T09:42:31;15.50;57.50
14893;DHT22;7538;53.626;9.906;2023-03-16T09:45:08;15.20;57.00
14893;DHT22;7538;53.626;9.906;2023-03-16T09:47:36;14.70;58.20
14893;DHT22;7538;53.626;9.906;2023-03-16T09:50:07;14.60;58.70
14893;DHT22;7538;53.626;9.906;2023-03-16T09:52:40;14.70;58.90
14893;DHT22;7538;53.626;9.906;2023-03-16T09:55:18;15.00;57.70
14893;DHT22;7538;53.626;9.906;2023-03-16T09:57:50;14.90;56.70
14893;DHT22;7538;53.626;9.906;2023-03-16T10:00:20;15.10;56.50
14893;DHT22;7538;53.626;9.906;2023-03-16T10:03:01;15.10;55.90
14893;DHT22;7538;53.626;9.906;2023-03-16T10:05:30;15.10;56.60
14893;DHT22;7538;53.626;9.906;2023-03-16T10:08:07;15.00;56.10
14893;DHT22;7538;53.626;9.906;2023-03-16T10:10:53;14.90;54.90
14893;DHT22;7538;53.626;9.906;2023-03-16T10:13:29;14.60;54.90
14893;DHT22;7538;53.626;9.906;2023-03-16T10:16:02;14.30;56.00
14893;DHT22;7538;53.626;9.906;2023-03-16T10:18:31;14.00;55.10
14893;DHT22;7538;53.626;9.906;2023-03-16T10:21:01;13.80;55.60
14893;DHT22;7538;53.626;9.906;2023-03-16T10:23:31;13.60;56.10
14893;DHT22;7538;53.626;9.906;2023-03-16T10:26:10;13.60;55.20
14893;DHT22;7538;53.626;9.906;2023-03-16T10:28:38;13.70;55.70
14893;DHT22;7538;53.626;9.906;2023-03-16T10:31:09;13.60;55.20
14893;DHT22;7538;53.626;9.906;2023-03-16T10:33:36;13.70;55.70
14893;DHT22;7538;53.626;9.906;2023-03-16T10:36:11;13.70;54.70
14893;DHT22;7538;53.626;9.906;2023-03-16T10:38:42;13.50;53.90
14893;DHT22;7538;53.626;9.906;2023-03-16T10:41:25;13.40;54.70
14893;DHT22;7538;53.626;9.906;2023-03-16T10:43:54;13.30;54.90
14893;DHT22;7538;53.626;9.906;2023-03-16T10:46:23;13.20;54.00
14893;DHT22;7538;53.626;9.906;2023-03-16T10:48:51;13.00;54.20
14893;DHT22;7538;53.626;9.906;2023-03-16T10:51:24;12.60;53.20
14893;DHT22;7538;53.626;9.906;2023-03-16T10:53:52;12.40;54.80
14893;DHT22;7538;53.626;9.906;2023-03-16T10:56:23;12.40;54.40
14893;DHT22;7538;53.626;9.906;2023-03-16T10:58:50;12.40;54.40
14893;DHT22;7538;53.626;9.906;2023-03-16T11:01:19;12.20;53.50
14893;DHT22;7538;53.626;9.906;2023-03-16T11:03:48;12.00;53.80
14893;DHT22;7538;53.626;9.906;2023-03-16T11:06:19;12.00;53.20
14893;DHT22;7538;53.626;9.906;2023-03-16T11:08:47;11.90;52.10
14893;DHT22;7538;53.626;9.906;2023-03-16T11:11:17;11.80;52.20
14893;DHT22;7538;53.626;9.906;2023-03-16T11:13:48;12.20;52.40
14893;DHT22;7538;53.626;9.906;2023-03-16T11:16:23;11.90;52.40
14893;DHT22;7538;53.626;9.906;2023-03-16T11:18:54;12.00;50.60
14893;DHT22;7538;53.626;9.906;2023-03-16T11:21:29;11.90;49.30
14893;DHT22;7538;53.626;9.906;2023-03-16T11:24:02;11.80;49.20
14893;DHT22;7538;53.626;9.906;2023-03-16T11:26:32;10.70;47.70
14893;DHT22;7538;53.626;9.906;2023-03-16T11:29:04;11.50;48.40
14893;DHT22;7538;53.626;9.906;2023-03-16T11:31:39;11.40;49.40
14893;DHT22;7538;53.626;9.906;2023-03-16T11:34:15;11.30;50.60
14893;DHT22;7538;53.626;9.906;2023-03-16T11:36:49;11.40;49.90
14893;DHT22;7538;53.626;9.906;2023-03-16T11:39:26;11.50;51.10
14893;DHT22;7538;53.626;9.906;2023-03-16T11:42:03;8.20;48.40
14893;DHT22;7538;53.626;9.906;2023-03-16T11:44:42;11.50;50.20
14893;DHT22;7538;53.626;9.906;2023-03-16T11:47:30;11.60;50.50
14893;DHT22;7538;53.626;9.906;2023-03-16T11:50:04;11.60;50.10
14893;DHT22;7538;53.626;9.906;2023-03-16T11:52:44;11.50;50.40
14893;DHT22;7538;53.626;9.906;2023-03-16T11:55:24;11.50;49.90
14893;DHT22;7538;53.626;9.906;2023-03-16T11:58:02;11.60;50.20
14893;DHT22;7538;53.626;9.906;2023-03-16T12:00:47;11.60;50.20
14893;DHT22;7538;53.626;9.906;2023-03-16T12:03:35;11.70;49.30
14893;DHT22;7538;53.626;9.906;2023-03-16T12:06:12;9.90;46.30
14893;DHT22;7538;53.626;9.906;2023-03-16T12:09:10;11.60;47.30
14893;DHT22;7538;53.626;9.906;2023-03-16T12:11:43;11.50;47.10
14893;DHT22;7538;53.626;9.906;2023-03-16T12:14:17;11.40;47.20
14893;DHT22;7538;53.626;9.906;2023-03-16T12:16:52;11.40;48.00
14893;DHT22;7538;53.626;9.906;2023-03-16T12:19:22;12.10;46.90
14893;DHT22;7538;53.626;9.906;2023-03-16T12:22:03;11.40;46.90
14893;DHT22;7538;53.626;9.906;2023-03-16T12:24:37;9.10;46.80
14893;DHT22;7538;53.626;9.906;2023-03-16T12:27:13;11.50;47.40
14893;DHT22;7538;53.626;9.906;2023-03-16T12:29:50;9.20;46.70
14893;DHT22;7538;53.626;9.906;2023-03-16T12:32:29;11.50;47.90
14893;DHT22;7538;53.626;9.906;2023-03-16T12:35:03;11.50;47.90
14893;DHT22;7538;53.626;9.906;2023-03-16T12:37:35;11.60;49.30
14893;DHT22;7538;53.626;9.906;2023-03-16T12:40:12;11.70;48.30
14893;DHT22;7538;53.626;9.906;2023-03-16T12:42:55;11.70;46.70
14893;DHT22;7538;53.626;9.906;2023-03-16T12:45:31;11.60;46.60
14893;DHT22;7538;53.626;9.906;2023-03-16T12:48:08;11.50;47.10
14893;DHT22;7538;53.626;9.906;2023-03-16T12:50:47;11.60;47.50
14893;DHT22;7538;53.626;9.906;2023-03-16T12:53:24;11.60;47.80
14893;DHT22;7538;53.626;9.906;2023-03-16T12:55:53;11.60;47.10
14893;DHT22;7538;53.626;9.906;2023-03-16T12:58:22;11.60;47.50
14893;DHT22;7538;53.626;9.906;2023-03-16T13:00:56;11.70;47.10
14893;DHT22;7538;53.626;9.906;2023-03-16T13:03:26;11.60;46.60
14893;DHT22;7538;53.626;9.906;2023-03-16T13:05:56;10.70;46.10
14893;DHT22;7538;53.626;9.906;2023-03-16T13:08:26;11.40;48.10
14893;DHT22;7538;53.626;9.906;2023-03-16T13:11:04;11.60;47.80
14893;DHT22;7538;53.626;9.906;2023-03-16T13:13:31;11.50;46.80
14893;DHT22;7538;53.626;9.906;2023-03-16T13:16:05;11.40;45.30
14893;DHT22;7538;53.626;9.906;2023-03-16T13:18:37;11.20;45.00
14893;DHT22;7538;53.626;9.906;2023-03-16T13:21:18;11.20;46.40
14893;DHT22;7538;53.626;9.906;2023-03-16T13:23:56;11.10;46.50
14893;DHT22;7538;53.626;9.906;2023-03-16T13:29:25;8.70;45.90
14893;DHT22;7538;53.626;9.906;2023-03-16T13:31:55;11.50;47.00
14893;DHT22;7538;53.626;9.906;2023-03-16T13:34:27;11.60;45.60
14893;DHT22;7538;53.626;9.906;2023-03-16T13:36:56;11.40;46.10
14893;DHT22;7538;53.626;9.906;2023-03-16T13:39:25;11.30;46.30
14893;DHT22;7538;53.626;9.906;2023-03-16T13:42:02;11.30;46.50
14893;DHT22;7538;53.626;9.906;2023-03-16T13:44:30;11.40;46.80
14893;DHT22;7538;53.626;9.906;2023-03-16T13:47:02;11.20;46.50
14893;DHT22;7538;53.626;9.906;2023-03-16T13:49:30;11.20;47.20
14893;DHT22;7538;53.626;9.906;2023-03-16T13:51:57;11.30;48.10
14893;DHT22;7538;53.626;9.906;2023-03-16T13:54:25;11.30;47.80
14893;DHT22;7538;53.626;9.906;2023-03-16T13:56:56;13.70;47.70
14893;DHT22;7538;53.626;9.906;2023-03-16T13:59:24;11.30;45.90
14893;DHT22;7538;53.626;9.906;2023-03-16T14:01:54;11.20;45.90
14893;DHT22;7538;53.626;9.906;2023-03-16T14:04:25;11.20;46.10
14893;DHT22;7538;53.626;9.906;2023-03-16T14:06:56;11.10;46.40
14893;DHT22;7538;53.626;9.906;2023-03-16T14:09:25;11.20;46.90
14893;DHT22;7538;53.626;9.906;2023-03-16T14:11:53;11.10;46.40
14893;DHT22;7538;53.626;9.906;2023-03-16T14:14:24;11.00;47.20
14893;DHT22;7538;53.626;9.906;2023-03-16T14:16:51;10.90;47.70
14893;DHT22;7538;53.626;9.906;2023-03-16T14:19:20;10.90;47.90
14893;DHT22;7538;53.626;9.906;2023-03-16T14:21:49;10.90;47.90
14893;DHT22;7538;53.626;9.906;2023-03-16T14:24:26;10.90;48.30
14893;DHT22;7538;53.626;9.906;2023-03-16T14:26:55;11.00;48.80
14893;DHT22;7538;53.626;9.906;2023-03-16T14:29:25;11.10;48.40
14893;DHT22;7538;53.626;9.906;2023-03-16T14:31:53;11.00;47.90
14893;DHT22;7538;53.626;9.906;2023-03-16T14:34:26;11.00;47.50
14893;DHT22;7538;53.626;9.906;2023-03-16T14:37:05;10.80;48.10
14893;DHT22;7538;53.626;9.906;2023-03-16T14:39:33;10.80;48.70
14893;DHT22;7538;53.626;9.906;2023-03-16T14:42:02;10.90;48.30
14893;DHT22;7538;53.626;9.906;2023-03-16T14:44:30;10.90;48.10
14893;DHT22;7538;53.626;9.906;2023-03-16T14:46:59;10.90;48.10
14893;DHT22;7538;53.626;9.906;2023-03-16T14:49:28;10.90;48.30
14893;DHT22;7538;53.626;9.906;2023-03-16T14:51:58;10.90;48.30
14893;DHT22;7538;53.626;9.906;2023-03-16T14:54:27;10.70;47.80
14893;DHT22;7538;53.626;9.906;2023-03-16T14:56:59;10.80;48.80
14893;DHT22;7538;53.626;9.906;2023-03-16T14:59:27;10.70;48.80
14893;DHT22;7538;53.626;9.906;2023-03-16T15:01:54;10.80;49.60
14893;DHT22;7538;53.626;9.906;2023-03-16T15:04:25;11.00;50.30
14893;DHT22;7538;53.626;9.906;2023-03-16T15:06:53;11.10;50.00
14893;DHT22;7538;53.626;9.906;2023-03-16T15:09:38;11.20;50.00
14893;DHT22;7538;53.626;9.906;2023-03-16T15:12:13;11.10;49.60
14893;DHT22;7538;53.626;9.906;2023-03-16T15:14:40;11.10;50.30
14893;DHT22;7538;53.626;9.906;2023-03-16T15:17:24;11.00;49.20
14893;DHT22;7538;53.626;9.906;2023-03-16T15:19:51;10.80;49.20
14893;DHT22;7538;53.626;9.906;2023-03-16T15:22:24;10.70;49.70
14893;DHT22;7538;53.626;9.906;2023-03-16T15:24:53;10.60;49.20
14893;DHT22;7538;53.626;9.906;2023-03-16T15:27:24;10.40;48.60
14893;DHT22;7538;53.626;9.906;2023-03-16T15:29:51;10.30;49.30
14893;DHT22;7538;53.626;9.906;2023-03-16T15:32:18;10.40;49.70
14893;DHT22;7538;53.626;9.906;2023-03-16T15:34:45;10.40;49.30
14893;DHT22;7538;53.626;9.906;2023-03-16T15:37:13;10.40;49.50
14893;DHT22;7538;53.626;9.906;2023-03-16T15:39:42;12.40;50.00
14893;DHT22;7538;53.626;9.906;2023-03-16T15:42:13;10.30;49.20
14893;DHT22;7538;53.626;9.906;2023-03-16T15:44:42;10.40;49.30
14893;DHT22;7538;53.626;9.906;2023-03-16T15:47:10;9.70;48.70
14893;DHT22;7538;53.626;9.906;2023-03-16T15:49:37;10.40;49.60
14893;DHT22;7538;53.626;9.906;2023-03-16T15:52:05;10.40;49.20
14893;DHT22;7538;53.626;9.906;2023-03-16T15:54:34;10.50;49.60
14893;DHT22;7538;53.626;9.906;2023-03-16T15:57:01;10.50;49.30
14893;DHT22;7538;53.626;9.906;2023-03-16T15:59:33;10.50;48.80
14893;DHT22;7538;53.626;9.906;2023-03-16T16:02:24;10.50;49.00
14893;DHT22;7538;53.626;9.906;2023-03-16T16:04:53;10.50;48.80
14893;DHT22;7538;53.626;9.906;2023-03-16T16:07:20;10.40;48.40
14893;DHT22;7538;53.626;9.906;2023-03-16T16:09:47;10.20;48.70
14893;DHT22;7538;53.626;9.906;2023-03-16T16:12:14;10.30;49.50